sensor_id;sensor_type;location;lat;lon;timestamp;temperature;humidity
11079;DHT22;5592;49.234;7.268;2022-12-01T00:00:36;6.70;99.90
11079;DHT22;5592;49.234;7.268;2022-12-01T00:03:01;6.70;99.90
11079;DHT22;5592;49.234;7.268;2022-12-01T00:05:27;6.70;99.90
11079;DHT22;5592;49.234;7.268;2022-12-01T00:07:53;6.60;99.90
11079;DHT22;5592;49.234;7.268;2022-12-01T00:10:18;6.60;99.90
11079;DHT22;5592;49.234;7.268;2022-12-01T00:12:55;6.50;99.90
11079;DHT22;5592;49.234;7.268;2022-12-01T00:15:22;6.60;99.90
11079;DHT22;5592;49.234;7.268;2022-12-01T00:17:49;6.50;99.90
11079;DHT22;5592;49.234;7.268;2022-12-01T00:20:15;6.40;99.90
11079;DHT22;5592;49.234;7.268;2022-12-01T00:22:42;6.50;99.90
11079;DHT22;5592;49.234;7.268;2022-12-01T00:25:08;6.50;99.90
11079;DHT22;5592;49.234;7.268;2022-12-01T00:27:34;6.60;99.90
11079;DHT22;5592;49.234;7.268;2022-12-01T00:29:59;6.60;99.90
11079;DHT22;5592;49.234;7.268;2022-12-01T00:32:25;6.60;99.90
11079;DHT22;5592;49.234;7.268;2022-12-01T00:34:50;6.50;99.90
11079;DHT22;5592;49.234;7.268;2022-12-01T00:37:16;6.60;99.90
11079;DHT22;5592;49.234;7.268;2022-12-01T00:39:41;6.50;99.90
11079;DHT22;5592;49.234;7.268;2022-12-01T00:42:07;6.50;99.90
11079;DHT22;5592;49.234;7.268;2022-12-01T00:44:32;6.60;99.90
11079;DHT22;5592;49.234;7.268;2022-12-01T00:46:58;6.50;99.90
11079;DHT22;5592;49.234;7.268;2022-12-01T00:49:24;6.50;99.90
11079;DHT22;5592;49.234;7.268;2022-12-01T00:51:49;6.50;99.90
11079;DHT22;5592;49.234;7.268;2022-12-01T00:54:15;6.50;99.90
11079;DHT22;5592;49.234;7.268;2022-12-01T00:56:40;6.50;99.90
11079;DHT22;5592;49.234;7.268;2022-12-01T00:59:06;6.50;99.90
11079;DHT22;5592;49.234;7.268;2022-12-01T01:01:31;6.30;99.90
11079;DHT22;5592;49.234;7.268;2022-12-01T01:03:57;6.30;99.90
11079;DHT22;5592;49.234;7.268;2022-12-01T01:06:23;6.40;99.90
11079;DHT22;5592;49.234;7.268;2022-12-01T01:08:48;6.40;99.90
11079;DHT22;5592;49.234;7.268;2022-12-01T01:11:14;6.30;99.90
11079;DHT22;5592;49.234;7.268;2022-12-01T01:13:40;6.30;99.90
11079;DHT22;5592;49.234;7.268;2022-12-01T01:16:10;6.30;99.90
11079;DHT22;5592;49.234;7.268;2022-12-01T01:18:37;6.30;99.90
11079;DHT22;5592;49.234;7.268;2022-12-01T01:21:06;6.20;99.90
11079;DHT22;5592;49.234;7.268;2022-12-01T01:23:33;6.20;99.90
11079;DHT22;5592;49.234;7.268;2022-12-01T01:26:06;6.10;99.90
11079;DHT22;5592;49.234;7.268;2022-12-01T01:28:32;6.10;99.90
11079;DHT22;5592;49.234;7.268;2022-12-01T01:30:58;6.10;99.90
11079;DHT22;5592;49.234;7.268;2022-12-01T01:33:24;6.20;99.90
11079;DHT22;5592;49.234;7.268;2022-12-01T01:35:50;6.20;99.90
11079;DHT22;5592;49.234;7.268;2022-12-01T01:38:15;6.20;99.90
11079;DHT22;5592;49.234;7.268;2022-12-01T01:40:42;6.20;99.90
11079;DHT22;5592;49.234;7.268;2022-12-01T01:43:14;6.20;99.90
11079;DHT22;5592;49.234;7.268;2022-12-01T01:45:40;6.20;99.90
11079;DHT22;5592;49.234;7.268;2022-12-01T01:48:06;6.20;99.90
11079;DHT22;5592;49.234;7.268;2022-12-01T01:50:32;6.10;99.90
11079;DHT22;5592;49.234;7.268;2022-12-01T01:53:01;6.10;99.90
11079;DHT22;5592;49.234;7.268;2022-12-01T01:55:33;6.10;99.90
11079;DHT22;5592;49.234;7.268;2022-12-01T01:58:01;6.10;99.90
11079;DHT22;5592;49.234;7.268;2022-12-01T02:00:27;6.10;99.90
11079;DHT22;5592;49.234;7.268;2022-12-01T02:02:55;6.10;99.90
11079;DHT22;5592;49.234;7.268;2022-12-01T02:05:23;6.10;99.90
11079;DHT22;5592;49.234;7.268;2022-12-01T02:07:51;5.90;99.90
11079;DHT22;5592;49.234;7.268;2022-12-01T02:10:17;5.90;99.90
11079;DHT22;5592;49.234;7.268;2022-12-01T02:21:34;5.90;99.90
11079;DHT22;5592;49.234;7.268;2022-12-01T02:27:57;5.90;99.90
11079;DHT22;5592;49.234;7.268;2022-12-01T02:35:33;5.80;99.90
11079;DHT22;5592;49.234;7.268;2022-12-01T02:40:58;5.70;99.90
11079;DHT22;5592;49.234;7.268;2022-12-01T02:43:45;5.80;99.90
11079;DHT22;5592;49.234;7.268;2022-12-01T02:46:23;5.80;99.90
11079;DHT22;5592;49.234;7.268;2022-12-01T02:48:53;5.80;99.90
11079;DHT22;5592;49.234;7.268;2022-12-01T02:51:28;5.80;99.90
11079;DHT22;5592;49.234;7.268;2022-12-01T02:53:56;5.70;99.90
11079;DHT22;5592;49.234;7.268;2022-12-01T02:56:23;5.50;99.90
11079;DHT22;5592;49.234;7.268;2022-12-01T02:58:49;5.50;99.90
11079;DHT22;5592;49.234;7.268;2022-12-01T03:04:05;5.20;99.90
11079;DHT22;5592;49.234;7.268;2022-12-01T03:12:04;4.90;99.90
11079;DHT22;5592;49.234;7.268;2022-12-01T03:14:43;4.90;99.90
11079;DHT22;5592;49.234;7.268;2022-12-01T03:17:13;4.90;99.90
11079;DHT22;5592;49.234;7.268;2022-12-01T03:19:45;4.90;99.90
11079;DHT22;5592;49.234;7.268;2022-12-01T03:24:46;4.90;99.90
11079;DHT22;5592;49.234;7.268;2022-12-01T03:27:14;4.90;99.90
11079;DHT22;5592;49.234;7.268;2022-12-01T03:29:45;4.90;99.90
11079;DHT22;5592;49.234;7.268;2022-12-01T03:32:28;4.90;99.90
11079;DHT22;5592;49.234;7.268;2022-12-01T03:34:59;5.00;99.90
11079;DHT22;5592;49.234;7.268;2022-12-01T03:37:34;5.00;99.90
11079;DHT22;5592;49.234;7.268;2022-12-01T03:40:04;5.00;99.90
11079;DHT22;5592;49.234;7.268;2022-12-01T03:42:55;4.90;99.90
11079;DHT22;5592;49.234;7.268;2022-12-01T03:45:30;4.90;99.90
11079;DHT22;5592;49.234;7.268;2022-12-01T03:47:57;4.80;99.90
11079;DHT22;5592;49.234;7.268;2022-12-01T03:50:30;4.80;99.90
11079;DHT22;5592;49.234;7.268;2022-12-01T03:55:31;4.80;99.90
11079;DHT22;5592;49.234;7.268;2022-12-01T03:58:07;4.90;99.90
11079;DHT22;5592;49.234;7.268;2022-12-01T04:00:36;5.00;99.90
11079;DHT22;5592;49.234;7.268;2022-12-01T04:03:03;4.80;99.90
11079;DHT22;5592;49.234;7.268;2022-12-01T04:05:30;4.70;99.90
11079;DHT22;5592;49.234;7.268;2022-12-01T04:07:56;4.70;99.90
11079;DHT22;5592;49.234;7.268;2022-12-01T04:10:22;4.80;99.90
11079;DHT22;5592;49.234;7.268;2022-12-01T04:12:48;4.80;99.90
11079;DHT22;5592;49.234;7.268;2022-12-01T04:15:14;4.80;99.90
11079;DHT22;5592;49.234;7.268;2022-12-01T04:17:41;4.70;99.90
11079;DHT22;5592;49.234;7.268;2022-12-01T04:20:14;4.80;99.90
11079;DHT22;5592;49.234;7.268;2022-12-01T04:22:40;4.90;99.90
11079;DHT22;5592;49.234;7.268;2022-12-01T04:25:06;4.80;99.90
11079;DHT22;5592;49.234;7.268;2022-12-01T04:27:35;4.80;99.90
11079;DHT22;5592;49.234;7.268;2022-12-01T04:30:01;4.80;99.90
11079;DHT22;5592;49.234;7.268;2022-12-01T04:32:27;4.80;99.90
11079;DHT22;5592;49.234;7.268;2022-12-01T04:34:52;4.90;99.90
11079;DHT22;5592;49.234;7.268;2022-12-01T04:37:18;4.80;99.90
11079;DHT22;5592;49.234;7.268;2022-12-01T04:39:44;4.90;99.90
11079;DHT22;5592;49.234;7.268;2022-12-01T04:42:10;4.80;99.90
11079;DHT22;5592;49.234;7.268;2022-12-01T04:44:38;4.80;99.90
11079;DHT22;5592;49.234;7.268;2022-12-01T04:47:05;4.80;99.90
11079;DHT22;5592;49.234;7.268;2022-12-01T04:49:31;4.80;99.90
11079;DHT22;5592;49.234;7.268;2022-12-01T04:51:57;4.80;99.90
11079;DHT22;5592;49.234;7.268;2022-12-01T04:54:23;4.80;99.90
11079;DHT22;5592;49.234;7.268;2022-12-01T04:56:49;4.80;99.90
11079;DHT22;5592;49.234;7.268;2022-12-01T04:59:15;4.80;99.90
11079;DHT22;5592;49.234;7.268;2022-12-01T05:01:41;4.80;99.90
11079;DHT22;5592;49.234;7.268;2022-12-01T05:04:10;4.70;99.90
11079;DHT22;5592;49.234;7.268;2022-12-01T05:06:37;4.70;99.90
11079;DHT22;5592;49.234;7.268;2022-12-01T05:09:02;4.70;99.90
11079;DHT22;5592;49.234;7.268;2022-12-01T05:11:29;4.70;99.90
11079;DHT22;5592;49.234;7.268;2022-12-01T05:13:56;4.70;99.90
11079;DHT22;5592;49.234;7.268;2022-12-01T05:16:23;4.70;99.90
11079;DHT22;5592;49.234;7.268;2022-12-01T05:18:51;4.70;99.90
11079;DHT22;5592;49.234;7.268;2022-12-01T05:21:37;4.70;99.90
11079;DHT22;5592;49.234;7.268;2022-12-01T05:24:04;4.60;99.90
11079;DHT22;5592;49.234;7.268;2022-12-01T05:26:30;4.60;99.90
11079;DHT22;5592;49.234;7.268;2022-12-01T05:28:55;4.60;99.90
11079;DHT22;5592;49.234;7.268;2022-12-01T05:31:21;4.60;99.90
11079;DHT22;5592;49.234;7.268;2022-12-01T05:33:47;4.60;99.90
11079;DHT22;5592;49.234;7.268;2022-12-01T05:36:12;4.60;99.90
11079;DHT22;5592;49.234;7.268;2022-12-01T05:38:38;4.60;99.90
11079;DHT22;5592;49.234;7.268;2022-12-01T05:41:03;4.60;99.90
11079;DHT22;5592;49.234;7.268;2022-12-01T05:43:29;4.60;99.90
11079;DHT22;5592;49.234;7.268;2022-12-01T05:45:55;4.60;99.90
11079;DHT22;5592;49.234;7.268;2022-12-01T05:48:21;4.60;99.90
11079;DHT22;5592;49.234;7.268;2022-12-01T05:50:47;4.70;99.90
11079;DHT22;5592;49.234;7.268;2022-12-01T05:53:13;4.70;99.90
11079;DHT22;5592;49.234;7.268;2022-12-01T05:55:39;4.80;99.90
11079;DHT22;5592;49.234;7.268;2022-12-01T05:58:05;4.80;99.90
11079;DHT22;5592;49.234;7.268;2022-12-01T06:00:30;4.80;99.90
11079;DHT22;5592;49.234;7.268;2022-12-01T06:02:56;4.80;99.90
11079;DHT22;5592;49.234;7.268;2022-12-01T06:05:22;4.80;99.90
11079;DHT22;5592;49.234;7.268;2022-12-01T06:07:47;4.80;99.90
11079;DHT22;5592;49.234;7.268;2022-12-01T06:10:13;4.80;99.90
11079;DHT22;5592;49.234;7.268;2022-12-01T06:12:39;4.80;99.90
11079;DHT22;5592;49.234;7.268;2022-12-01T06:15:06;4.90;99.90
11079;DHT22;5592;49.234;7.268;2022-12-01T06:17:32;5.00;99.90
11079;DHT22;5592;49.234;7.268;2022-12-01T06:19:57;5.00;99.90
11079;DHT22;5592;49.234;7.268;2022-12-01T06:22:23;5.00;99.90
11079;DHT22;5592;49.234;7.268;2022-12-01T06:24:49;4.90;99.90
11079;DHT22;5592;49.234;7.268;2022-12-01T06:27:14;4.90;99.90
11079;DHT22;5592;49.234;7.268;2022-12-01T06:29:40;4.90;99.90
11079;DHT22;5592;49.234;7.268;2022-12-01T06:32:05;4.90;99.90
11079;DHT22;5592;49.234;7.268;2022-12-01T06:34:31;5.00;99.90
11079;DHT22;5592;49.234;7.268;2022-12-01T06:36:57;5.00;99.90
11079;DHT22;5592;49.234;7.268;2022-12-01T06:39:22;5.00;99.90
11079;DHT22;5592;49.234;7.268;2022-12-01T06:41:48;5.10;99.90
11079;DHT22;5592;49.234;7.268;2022-12-01T06:44:14;5.10;99.90
11079;DHT22;5592;49.234;7.268;2022-12-01T06:46:39;5.10;99.90
11079;DHT22;5592;49.234;7.268;2022-12-01T06:49:05;5.10;99.90
11079;DHT22;5592;49.234;7.268;2022-12-01T06:51:31;5.10;99.90
11079;DHT22;5592;49.234;7.268;2022-12-01T06:53:58;5.10;99.90
11079;DHT22;5592;49.234;7.268;2022-12-01T06:56:24;5.10;99.90
11079;DHT22;5592;49.234;7.268;2022-12-01T06:58:50;5.00;99.90
11079;DHT22;5592;49.234;7.268;2022-12-01T07:01:17;5.10;99.90
11079;DHT22;5592;49.234;7.268;2022-12-01T07:03:45;5.10;99.90
11079;DHT22;5592;49.234;7.268;2022-12-01T07:06:11;5.10;99.90
11079;DHT22;5592;49.234;7.268;2022-12-01T07:08:37;5.10;99.90
11079;DHT22;5592;49.234;7.268;2022-12-01T07:11:08;5.10;99.90
11079;DHT22;5592;49.234;7.268;2022-12-01T07:13:35;5.10;99.90
11079;DHT22;5592;49.234;7.268;2022-12-01T07:16:01;5.10;99.90
11079;DHT22;5592;49.234;7.268;2022-12-01T07:18:28;5.10;99.90
11079;DHT22;5592;49.234;7.268;2022-12-01T07:21:00;5.20;99.90
11079;DHT22;5592;49.234;7.268;2022-12-01T07:23:27;5.10;99.90
11079;DHT22;5592;49.234;7.268;2022-12-01T07:26:07;5.10;99.90
11079;DHT22;5592;49.234;7.268;2022-12-01T07:28:33;5.10;99.90
11079;DHT22;5592;49.234;7.268;2022-12-01T07:31:05;5.10;99.90
11079;DHT22;5592;49.234;7.268;2022-12-01T07:33:31;5.00;99.90
11079;DHT22;5592;49.234;7.268;2022-12-01T07:35:57;5.00;99.90
11079;DHT22;5592;49.234;7.268;2022-12-01T07:38:23;5.10;99.90
11079;DHT22;5592;49.234;7.268;2022-12-01T07:40:48;5.10;99.90
11079;DHT22;5592;49.234;7.268;2022-12-01T07:43:15;5.20;99.90
11079;DHT22;5592;49.234;7.268;2022-12-01T07:45:41;5.20;99.90
11079;DHT22;5592;49.234;7.268;2022-12-01T07:48:07;5.20;99.90
11079;DHT22;5592;49.234;7.268;2022-12-01T07:50:32;5.20;99.90
11079;DHT22;5592;49.234;7.268;2022-12-01T07:52:58;5.10;99.90
11079;DHT22;5592;49.234;7.268;2022-12-01T07:55:23;5.10;99.90
11079;DHT22;5592;49.234;7.268;2022-12-01T07:57:49;5.10;99.90
11079;DHT22;5592;49.234;7.268;2022-12-01T08:00:15;5.00;99.90
11079;DHT22;5592;49.234;7.268;2022-12-01T08:02:40;4.90;99.90
11079;DHT22;5592;49.234;7.268;2022-12-01T08:05:06;4.90;99.90
11079;DHT22;5592;49.234;7.268;2022-12-01T08:07:32;4.90;99.90
11079;DHT22;5592;49.234;7.268;2022-12-01T08:09:57;4.80;99.90
11079;DHT22;5592;49.234;7.268;2022-12-01T08:12:23;4.80;99.90
11079;DHT22;5592;49.234;7.268;2022-12-01T08:14:49;4.90;99.90
11079;DHT22;5592;49.234;7.268;2022-12-01T08:17:14;4.90;99.90
11079;DHT22;5592;49.234;7.268;2022-12-01T08:19:40;4.90;99.90
11079;DHT22;5592;49.234;7.268;2022-12-01T08:22:07;5.00;99.90
11079;DHT22;5592;49.234;7.268;2022-12-01T08:24:32;5.00;99.90
11079;DHT22;5592;49.234;7.268;2022-12-01T08:26:58;5.00;99.90
11079;DHT22;5592;49.234;7.268;2022-12-01T08:29:23;5.00;99.90
11079;DHT22;5592;49.234;7.268;2022-12-01T08:31:50;5.00;99.90
11079;DHT22;5592;49.234;7.268;2022-12-01T08:34:17;5.10;99.90
11079;DHT22;5592;49.234;7.268;2022-12-01T08:36:42;5.00;99.90
11079;DHT22;5592;49.234;7.268;2022-12-01T08:39:10;5.10;99.90
11079;DHT22;5592;49.234;7.268;2022-12-01T08:41:36;5.10;99.90
11079;DHT22;5592;49.234;7.268;2022-12-01T08:44:01;5.00;99.90
11079;DHT22;5592;49.234;7.268;2022-12-01T08:46:31;4.90;99.90
11079;DHT22;5592;49.234;7.268;2022-12-01T08:48:56;4.80;99.90
11079;DHT22;5592;49.234;7.268;2022-12-01T08:51:22;4.80;99.90
11079;DHT22;5592;49.234;7.268;2022-12-01T08:53:48;4.80;99.90
11079;DHT22;5592;49.234;7.268;2022-12-01T08:56:30;4.90;99.90
11079;DHT22;5592;49.234;7.268;2022-12-01T08:58:56;5.00;99.90
11079;DHT22;5592;49.234;7.268;2022-12-01T09:01:25;5.00;99.90
11079;DHT22;5592;49.234;7.268;2022-12-01T09:03:55;5.00;99.90
11079;DHT22;5592;49.234;7.268;2022-12-01T09:06:33;5.10;99.90
11079;DHT22;5592;49.234;7.268;2022-12-01T09:08:59;5.20;99.90
11079;DHT22;5592;49.234;7.268;2022-12-01T09:11:24;5.20;99.90
11079;DHT22;5592;49.234;7.268;2022-12-01T09:13:50;5.30;99.90
11079;DHT22;5592;49.234;7.268;2022-12-01T09:16:17;5.30;99.90
11079;DHT22;5592;49.234;7.268;2022-12-01T09:18:44;5.30;99.90
11079;DHT22;5592;49.234;7.268;2022-12-01T09:21:14;5.40;99.90
11079;DHT22;5592;49.234;7.268;2022-12-01T09:23:40;5.40;99.90
11079;DHT22;5592;49.234;7.268;2022-12-01T09:26:07;5.40;99.90
11079;DHT22;5592;49.234;7.268;2022-12-01T09:28:33;5.30;99.90
11079;DHT22;5592;49.234;7.268;2022-12-01T09:31:19;5.10;99.90
11079;DHT22;5592;49.234;7.268;2022-12-01T09:33:45;5.00;99.90
11079;DHT22;5592;49.234;7.268;2022-12-01T09:36:11;5.00;99.90
11079;DHT22;5592;49.234;7.268;2022-12-01T09:38:38;5.10;99.90
11079;DHT22;5592;49.234;7.268;2022-12-01T09:43:55;5.20;99.90
11079;DHT22;5592;49.234;7.268;2022-12-01T09:46:31;5.30;99.90
11079;DHT22;5592;49.234;7.268;2022-12-01T09:49:00;5.30;99.90
11079;DHT22;5592;49.234;7.268;2022-12-01T09:51:27;5.20;99.90
11079;DHT22;5592;49.234;7.268;2022-12-01T09:53:56;5.20;99.90
11079;DHT22;5592;49.234;7.268;2022-12-01T09:56:28;5.30;99.90
11079;DHT22;5592;49.234;7.268;2022-12-01T09:59:05;5.40;99.90
11079;DHT22;5592;49.234;7.268;2022-12-01T10:01:42;5.40;99.90
11079;DHT22;5592;49.234;7.268;2022-12-01T10:04:41;5.50;99.90
11079;DHT22;5592;49.234;7.268;2022-12-01T10:07:22;5.50;99.90
11079;DHT22;5592;49.234;7.268;2022-12-01T10:12:20;5.70;99.90
11079;DHT22;5592;49.234;7.268;2022-12-01T10:14:49;5.80;99.90
11079;DHT22;5592;49.234;7.268;2022-12-01T10:20:09;5.60;99.90
11079;DHT22;5592;49.234;7.268;2022-12-01T10:25:23;5.50;99.90
11079;DHT22;5592;49.234;7.268;2022-12-01T10:30:35;5.40;99.90
11079;DHT22;5592;49.234;7.268;2022-12-01T10:33:26;5.20;99.90
11079;DHT22;5592;49.234;7.268;2022-12-01T10:35:55;5.10;99.90
11079;DHT22;5592;49.234;7.268;2022-12-01T10:38:36;5.00;99.90
11079;DHT22;5592;49.234;7.268;2022-12-01T10:41:05;5.10;99.90
11079;DHT22;5592;49.234;7.268;2022-12-01T10:43:43;5.00;99.90
11079;DHT22;5592;49.234;7.268;2022-12-01T10:48:58;5.10;99.90
11079;DHT22;5592;49.234;7.268;2022-12-01T10:51:25;5.20;99.90
11079;DHT22;5592;49.234;7.268;2022-12-01T10:54:07;5.30;99.90
11079;DHT22;5592;49.234;7.268;2022-12-01T10:56:45;5.40;99.90
11079;DHT22;5592;49.234;7.268;2022-12-01T10:59:29;5.50;99.90
11079;DHT22;5592;49.234;7.268;2022-12-01T11:01:56;5.60;99.90
11079;DHT22;5592;49.234;7.268;2022-12-01T11:04:32;5.40;99.90
11079;DHT22;5592;49.234;7.268;2022-12-01T11:06:58;5.40;99.90
11079;DHT22;5592;49.234;7.268;2022-12-01T11:09:26;5.40;99.90
11079;DHT22;5592;49.234;7.268;2022-12-01T11:11:58;5.50;99.90
11079;DHT22;5592;49.234;7.268;2022-12-01T11:14:44;5.60;99.90
11079;DHT22;5592;49.234;7.268;2022-12-01T11:17:30;5.70;99.90
11079;DHT22;5592;49.234;7.268;2022-12-01T11:20:17;5.80;99.90
11079;DHT22;5592;49.234;7.268;2022-12-01T11:22:46;5.90;99.90
11079;DHT22;5592;49.234;7.268;2022-12-01T11:25:19;6.00;99.90
11079;DHT22;5592;49.234;7.268;2022-12-01T11:27:53;6.00;99.90
11079;DHT22;5592;49.234;7.268;2022-12-01T11:30:24;5.90;99.90
11079;DHT22;5592;49.234;7.268;2022-12-01T11:33:00;5.90;99.90
11079;DHT22;5592;49.234;7.268;2022-12-01T11:35:30;5.90;99.90
11079;DHT22;5592;49.234;7.268;2022-12-01T11:38:00;5.90;99.90
11079;DHT22;5592;49.234;7.268;2022-12-01T11:40:52;5.90;99.90
11079;DHT22;5592;49.234;7.268;2022-12-01T11:43:36;5.90;99.90
11079;DHT22;5592;49.234;7.268;2022-12-01T11:46:05;5.90;99.90
11079;DHT22;5592;49.234;7.268;2022-12-01T11:48:33;5.90;99.90
11079;DHT22;5592;49.234;7.268;2022-12-01T11:53:44;5.80;99.90
11079;DHT22;5592;49.234;7.268;2022-12-01T11:58:42;5.80;99.90
11079;DHT22;5592;49.234;7.268;2022-12-01T12:26:27;5.50;99.90
11079;DHT22;5592;49.234;7.268;2022-12-01T12:29:28;5.40;99.90
11079;DHT22;5592;49.234;7.268;2022-12-01T12:32:13;5.30;99.90
11079;DHT22;5592;49.234;7.268;2022-12-01T12:37:25;5.20;99.90
11079;DHT22;5592;49.234;7.268;2022-12-01T12:51:29;5.40;99.90
11079;DHT22;5592;49.234;7.268;2022-12-01T12:54:20;5.50;99.90
11079;DHT22;5592;49.234;7.268;2022-12-01T12:56:51;5.50;99.90
11079;DHT22;5592;49.234;7.268;2022-12-01T12:59:30;5.60;99.90
11079;DHT22;5592;49.234;7.268;2022-12-01T13:02:13;5.60;99.90
11079;DHT22;5592;49.234;7.268;2022-12-01T13:04:42;5.60;99.90
11079;DHT22;5592;49.234;7.268;2022-12-01T13:07:36;5.60;99.90
11079;DHT22;5592;49.234;7.268;2022-12-01T13:10:20;5.50;99.90
11079;DHT22;5592;49.234;7.268;2022-12-01T13:12:59;5.40;99.90
11079;DHT22;5592;49.234;7.268;2022-12-01T13:15:26;5.40;99.90
11079;DHT22;5592;49.234;7.268;2022-12-01T13:18:15;5.30;99.90
11079;DHT22;5592;49.234;7.268;2022-12-01T13:20:47;5.30;99.90
11079;DHT22;5592;49.234;7.268;2022-12-01T13:23:16;5.30;99.90
11079;DHT22;5592;49.234;7.268;2022-12-01T13:25:43;5.40;99.90
11079;DHT22;5592;49.234;7.268;2022-12-01T13:28:21;5.40;99.90
11079;DHT22;5592;49.234;7.268;2022-12-01T13:31:11;5.40;99.90
11079;DHT22;5592;49.234;7.268;2022-12-01T13:33:52;5.40;99.90
11079;DHT22;5592;49.234;7.268;2022-12-01T13:36:21;5.30;99.90
11079;DHT22;5592;49.234;7.268;2022-12-01T13:39:03;5.30;99.90
11079;DHT22;5592;49.234;7.268;2022-12-01T13:41:32;5.10;99.90
11079;DHT22;5592;49.234;7.268;2022-12-01T13:46:31;5.10;99.90
11079;DHT22;5592;49.234;7.268;2022-12-01T13:49:00;5.10;99.90
11079;DHT22;5592;49.234;7.268;2022-12-01T13:51:26;5.10;99.90
11079;DHT22;5592;49.234;7.268;2022-12-01T13:54:28;5.10;99.90
11079;DHT22;5592;49.234;7.268;2022-12-01T13:57:03;5.20;99.90
11079;DHT22;5592;49.234;7.268;2022-12-01T14:02:29;5.20;99.90
11079;DHT22;5592;49.234;7.268;2022-12-01T14:07:51;5.20;99.90
11079;DHT22;5592;49.234;7.268;2022-12-01T14:12:46;5.30;99.90
11079;DHT22;5592;49.234;7.268;2022-12-01T14:15:38;5.20;99.90
11079;DHT22;5592;49.234;7.268;2022-12-01T14:20:35;5.10;99.90
11079;DHT22;5592;49.234;7.268;2022-12-01T14:26:19;5.10;99.90
11079;DHT22;5592;49.234;7.268;2022-12-01T14:34:19;5.10;99.90
11079;DHT22;5592;49.234;7.268;2022-12-01T14:39:29;5.10;99.90
11079;DHT22;5592;49.234;7.268;2022-12-01T14:41:58;5.10;99.90
11079;DHT22;5592;49.234;7.268;2022-12-01T14:50:03;4.90;99.90
11079;DHT22;5592;49.234;7.268;2022-12-01T14:52:34;4.90;99.90
11079;DHT22;5592;49.234;7.268;2022-12-01T14:58:16;4.80;99.90
11079;DHT22;5592;49.234;7.268;2022-12-01T15:00:57;4.80;99.90
11079;DHT22;5592;49.234;7.268;2022-12-01T15:03:23;4.80;99.90
11079;DHT22;5592;49.234;7.268;2022-12-01T15:05:52;4.70;99.90
11079;DHT22;5592;49.234;7.268;2022-12-01T15:08:25;4.70;99.90
11079;DHT22;5592;49.234;7.268;2022-12-01T15:10:56;4.70;99.90
11079;DHT22;5592;49.234;7.268;2022-12-01T15:13:40;4.70;99.90
11079;DHT22;5592;49.234;7.268;2022-12-01T15:16:17;4.70;99.90
11079;DHT22;5592;49.234;7.268;2022-12-01T15:18:43;4.70;99.90
11079;DHT22;5592;49.234;7.268;2022-12-01T15:21:12;4.70;99.90
11079;DHT22;5592;49.234;7.268;2022-12-01T15:24:21;4.60;99.90
11079;DHT22;5592;49.234;7.268;2022-12-01T15:26:51;4.60;99.90
11079;DHT22;5592;49.234;7.268;2022-12-01T15:29:23;4.50;99.90
11079;DHT22;5592;49.234;7.268;2022-12-01T15:31:54;4.50;99.90
11079;DHT22;5592;49.234;7.268;2022-12-01T15:34:26;4.30;99.90
11079;DHT22;5592;49.234;7.268;2022-12-01T15:36:53;4.30;99.90
11079;DHT22;5592;49.234;7.268;2022-12-01T15:39:33;4.40;99.90
11079;DHT22;5592;49.234;7.268;2022-12-01T15:41:59;4.40;99.90
11079;DHT22;5592;49.234;7.268;2022-12-01T15:44:32;4.40;99.90
11079;DHT22;5592;49.234;7.268;2022-12-01T15:46:58;4.40;99.90
11079;DHT22;5592;49.234;7.268;2022-12-01T15:49:29;4.40;99.90
11079;DHT22;5592;49.234;7.268;2022-12-01T15:52:10;4.40;99.90
11079;DHT22;5592;49.234;7.268;2022-12-01T15:54:37;4.40;99.90
11079;DHT22;5592;49.234;7.268;2022-12-01T15:57:03;4.50;99.90
11079;DHT22;5592;49.234;7.268;2022-12-01T15:59:32;4.50;99.90
11079;DHT22;5592;49.234;7.268;2022-12-01T16:05:13;4.40;99.90
11079;DHT22;5592;49.234;7.268;2022-12-01T16:07:39;4.40;99.90
11079;DHT22;5592;49.234;7.268;2022-12-01T16:10:05;4.40;99.90
11079;DHT22;5592;49.234;7.268;2022-12-01T16:12:34;4.30;99.90
11079;DHT22;5592;49.234;7.268;2022-12-01T16:15:11;4.40;99.90
11079;DHT22;5592;49.234;7.268;2022-12-01T16:17:46;4.30;99.90
11079;DHT22;5592;49.234;7.268;2022-12-01T16:20:25;4.30;99.90
11079;DHT22;5592;49.234;7.268;2022-12-01T16:22:58;4.30;99.90
11079;DHT22;5592;49.234;7.268;2022-12-01T16:27:57;4.20;99.90
11079;DHT22;5592;49.234;7.268;2022-12-01T16:30:25;4.20;99.90
11079;DHT22;5592;49.234;7.268;2022-12-01T16:33:03;4.20;99.90
11079;DHT22;5592;49.234;7.268;2022-12-01T16:35:31;4.20;99.90
11079;DHT22;5592;49.234;7.268;2022-12-01T16:37:59;4.20;99.90
11079;DHT22;5592;49.234;7.268;2022-12-01T16:40:25;4.20;99.90
11079;DHT22;5592;49.234;7.268;2022-12-01T16:42:51;4.10;99.90
11079;DHT22;5592;49.234;7.268;2022-12-01T16:45:20;4.10;99.90
11079;DHT22;5592;49.234;7.268;2022-12-01T16:47:48;4.10;99.90
11079;DHT22;5592;49.234;7.268;2022-12-01T16:50:18;4.20;99.90
11079;DHT22;5592;49.234;7.268;2022-12-01T16:52:44;4.20;99.90
11079;DHT22;5592;49.234;7.268;2022-12-01T16:57:54;4.10;99.90
11079;DHT22;5592;49.234;7.268;2022-12-01T17:00:21;4.10;99.90
11079;DHT22;5592;49.234;7.268;2022-12-01T17:02:46;4.20;99.90
11079;DHT22;5592;49.234;7.268;2022-12-01T17:05:12;4.20;99.90
11079;DHT22;5592;49.234;7.268;2022-12-01T17:07:38;4.20;99.90
11079;DHT22;5592;49.234;7.268;2022-12-01T17:10:04;4.20;99.90
11079;DHT22;5592;49.234;7.268;2022-12-01T17:12:30;4.20;99.90
11079;DHT22;5592;49.234;7.268;2022-12-01T17:14:56;4.20;99.90
11079;DHT22;5592;49.234;7.268;2022-12-01T17:17:21;4.30;99.90
11079;DHT22;5592;49.234;7.268;2022-12-01T17:19:47;4.30;99.90
11079;DHT22;5592;49.234;7.268;2022-12-01T17:22:12;4.30;99.90
11079;DHT22;5592;49.234;7.268;2022-12-01T17:24:38;4.20;99.90
11079;DHT22;5592;49.234;7.268;2022-12-01T17:27:04;4.20;99.90
11079;DHT22;5592;49.234;7.268;2022-12-01T17:29:29;4.30;99.90
11079;DHT22;5592;49.234;7.268;2022-12-01T17:31:55;4.30;99.90
11079;DHT22;5592;49.234;7.268;2022-12-01T17:34:20;4.30;99.90
11079;DHT22;5592;49.234;7.268;2022-12-01T17:36:46;4.20;99.90
11079;DHT22;5592;49.234;7.268;2022-12-01T17:39:13;4.20;99.90
11079;DHT22;5592;49.234;7.268;2022-12-01T17:41:39;4.20;99.90
11079;DHT22;5592;49.234;7.268;2022-12-01T17:44:06;4.20;99.90
11079;DHT22;5592;49.234;7.268;2022-12-01T17:46:32;4.20;99.90
11079;DHT22;5592;49.234;7.268;2022-12-01T17:48:57;4.20;99.90
11079;DHT22;5592;49.234;7.268;2022-12-01T17:51:23;4.20;99.90
11079;DHT22;5592;49.234;7.268;2022-12-01T17:53:49;4.20;99.90
11079;DHT22;5592;49.234;7.268;2022-12-01T17:56:17;4.20;99.90
11079;DHT22;5592;49.234;7.268;2022-12-01T17:58:43;4.10;99.90
11079;DHT22;5592;49.234;7.268;2022-12-01T18:01:16;4.20;99.90
11079;DHT22;5592;49.234;7.268;2022-12-01T18:03:42;4.20;99.90
11079;DHT22;5592;49.234;7.268;2022-12-01T18:06:08;4.30;99.90
11079;DHT22;5592;49.234;7.268;2022-12-01T18:08:35;4.30;99.90
11079;DHT22;5592;49.234;7.268;2022-12-01T18:11:02;4.30;99.90
11079;DHT22;5592;49.234;7.268;2022-12-01T18:13:35;4.30;99.90
11079;DHT22;5592;49.234;7.268;2022-12-01T18:16:06;4.30;99.90
11079;DHT22;5592;49.234;7.268;2022-12-01T18:18:31;4.20;99.90
11079;DHT22;5592;49.234;7.268;2022-12-01T18:20:57;4.20;99.90
11079;DHT22;5592;49.234;7.268;2022-12-01T18:23:23;4.20;99.90
11079;DHT22;5592;49.234;7.268;2022-12-01T18:25:48;4.20;99.90
11079;DHT22;5592;49.234;7.268;2022-12-01T18:28:14;4.20;99.90
11079;DHT22;5592;49.234;7.268;2022-12-01T18:30:39;4.30;99.90
11079;DHT22;5592;49.234;7.268;2022-12-01T18:33:05;4.20;99.90